sensor_id;sensor_type;location;lat;lon;timestamp;temperature;humidity
22781;DHT22;11557;50.884;4.322;2023-01-15T00:01:23;9.80;99.90
22781;DHT22;11557;50.884;4.322;2023-01-15T00:03:49;9.80;99.90
22781;DHT22;11557;50.884;4.322;2023-01-15T00:06:16;9.80;99.90
22781;DHT22;11557;50.884;4.322;2023-01-15T00:08:42;9.90;99.90
22781;DHT22;11557;50.884;4.322;2023-01-15T00:11:07;10.30;99.90
22781;DHT22;11557;50.884;4.322;2023-01-15T00:13:33;9.90;99.90
22781;DHT22;11557;50.884;4.322;2023-01-15T00:16:20;9.80;99.90
22781;DHT22;11557;50.884;4.322;2023-01-15T00:18:56;9.90;99.90
22781;DHT22;11557;50.884;4.322;2023-01-15T00:21:24;9.70;99.90
22781;DHT22;11557;50.884;4.322;2023-01-15T00:23:50;9.60;99.90
22781;DHT22;11557;50.884;4.322;2023-01-15T00:26:35;9.60;99.90
22781;DHT22;11557;50.884;4.322;2023-01-15T00:29:21;9.70;99.90
22781;DHT22;11557;50.884;4.322;2023-01-15T00:34:23;9.50;99.90
22781;DHT22;11557;50.884;4.322;2023-01-15T00:36:49;9.50;99.90
22781;DHT22;11557;50.884;4.322;2023-01-15T00:39:15;9.50;99.90
22781;DHT22;11557;50.884;4.322;2023-01-15T00:41:41;9.50;99.90
22781;DHT22;11557;50.884;4.322;2023-01-15T00:44:06;9.40;99.90
22781;DHT22;11557;50.884;4.322;2023-01-15T00:46:32;9.60;99.90
22781;DHT22;11557;50.884;4.322;2023-01-15T00:48:57;9.40;99.90
22781;DHT22;11557;50.884;4.322;2023-01-15T00:51:23;9.30;99.90
22781;DHT22;11557;50.884;4.322;2023-01-15T00:53:49;9.20;99.90
22781;DHT22;11557;50.884;4.322;2023-01-15T00:56:14;9.30;99.90
22781;DHT22;11557;50.884;4.322;2023-01-15T00:58:40;9.40;99.90
22781;DHT22;11557;50.884;4.322;2023-01-15T01:01:06;9.30;99.90
22781;DHT22;11557;50.884;4.322;2023-01-15T01:03:32;9.20;99.90
22781;DHT22;11557;50.884;4.322;2023-01-15T01:06:01;9.70;99.90
22781;DHT22;11557;50.884;4.322;2023-01-15T01:08:27;9.30;99.90
22781;DHT22;11557;50.884;4.322;2023-01-15T01:11:07;9.20;99.90
22781;DHT22;11557;50.884;4.322;2023-01-15T01:13:35;9.40;99.90
22781;DHT22;11557;50.884;4.322;2023-01-15T01:16:01;9.40;99.90
22781;DHT22;11557;50.884;4.322;2023-01-15T01:18:27;9.50;99.90
22781;DHT22;11557;50.884;4.322;2023-01-15T01:20:53;9.40;99.90
22781;DHT22;11557;50.884;4.322;2023-01-15T01:23:21;9.40;99.90
22781;DHT22;11557;50.884;4.322;2023-01-15T01:25:47;9.40;99.90
22781;DHT22;11557;50.884;4.322;2023-01-15T01:28:13;9.40;99.90
22781;DHT22;11557;50.884;4.322;2023-01-15T01:30:38;9.30;99.90
22781;DHT22;11557;50.884;4.322;2023-01-15T01:33:04;9.40;99.90
22781;DHT22;11557;50.884;4.322;2023-01-15T01:35:30;9.30;99.90
22781;DHT22;11557;50.884;4.322;2023-01-15T01:37:56;9.30;99.90
22781;DHT22;11557;50.884;4.322;2023-01-15T01:40:21;9.70;99.90
22781;DHT22;11557;50.884;4.322;2023-01-15T01:42:47;9.40;99.90
22781;DHT22;11557;50.884;4.322;2023-01-15T01:45:21;9.60;99.90
22781;DHT22;11557;50.884;4.322;2023-01-15T01:47:50;10.10;99.90
22781;DHT22;11557;50.884;4.322;2023-01-15T01:50:17;9.60;99.90
22781;DHT22;11557;50.884;4.322;2023-01-15T01:52:47;9.50;99.90
22781;DHT22;11557;50.884;4.322;2023-01-15T01:55:16;9.50;99.90
22781;DHT22;11557;50.884;4.322;2023-01-15T01:57:42;9.40;99.90
22781;DHT22;11557;50.884;4.322;2023-01-15T02:00:10;10.10;99.90
22781;DHT22;11557;50.884;4.322;2023-01-15T02:02:37;9.40;99.90
22781;DHT22;11557;50.884;4.322;2023-01-15T02:05:03;9.40;99.90
22781;DHT22;11557;50.884;4.322;2023-01-15T02:07:31;9.40;99.90
22781;DHT22;11557;50.884;4.322;2023-01-15T02:09:58;9.40;99.90
22781;DHT22;11557;50.884;4.322;2023-01-15T02:12:37;9.30;99.90
22781;DHT22;11557;50.884;4.322;2023-01-15T02:15:08;9.30;99.90
22781;DHT22;11557;50.884;4.322;2023-01-15T02:17:43;9.20;99.90
22781;DHT22;11557;50.884;4.322;2023-01-15T02:20:22;9.20;99.90
22781;DHT22;11557;50.884;4.322;2023-01-15T02:28:27;9.00;99.90
22781;DHT22;11557;50.884;4.322;2023-01-15T02:31:42;8.90;99.90
22781;DHT22;11557;50.884;4.322;2023-01-15T02:33:57;8.90;99.90
22781;DHT22;11557;50.884;4.322;2023-01-15T02:36:25;8.80;99.90
22781;DHT22;11557;50.884;4.322;2023-01-15T02:38:55;8.80;99.90
22781;DHT22;11557;50.884;4.322;2023-01-15T02:41:26;8.90;99.90
22781;DHT22;11557;50.884;4.322;2023-01-15T02:43:54;9.10;99.90
22781;DHT22;11557;50.884;4.322;2023-01-15T02:46:25;9.10;99.90
22781;DHT22;11557;50.884;4.322;2023-01-15T02:48:53;9.70;99.90
22781;DHT22;11557;50.884;4.322;2023-01-15T02:51:26;9.20;99.90
22781;DHT22;11557;50.884;4.322;2023-01-15T02:53:55;10.40;99.90
22781;DHT22;11557;50.884;4.322;2023-01-15T02:56:26;9.00;99.90
22781;DHT22;11557;50.884;4.322;2023-01-15T02:58:56;9.70;99.90
22781;DHT22;11557;50.884;4.322;2023-01-15T03:01:44;9.30;99.90
22781;DHT22;11557;50.884;4.322;2023-01-15T03:04:34;9.00;99.90
22781;DHT22;11557;50.884;4.322;2023-01-15T03:07:29;8.70;99.90
22781;DHT22;11557;50.884;4.322;2023-01-15T03:09:56;8.70;99.90
22781;DHT22;11557;50.884;4.322;2023-01-15T03:16:03;8.80;99.90
22781;DHT22;11557;50.884;4.322;2023-01-15T03:18:59;8.80;99.90
22781;DHT22;11557;50.884;4.322;2023-01-15T03:21:43;9.00;99.90
22781;DHT22;11557;50.884;4.322;2023-01-15T03:24:12;8.80;99.90
22781;DHT22;11557;50.884;4.322;2023-01-15T03:26:39;8.70;99.90
22781;DHT22;11557;50.884;4.322;2023-01-15T03:29:05;8.60;99.90
22781;DHT22;11557;50.884;4.322;2023-01-15T03:31:33;8.80;99.90
22781;DHT22;11557;50.884;4.322;2023-01-15T03:34:00;8.50;99.90
22781;DHT22;11557;50.884;4.322;2023-01-15T03:36:26;8.40;99.90
22781;DHT22;11557;50.884;4.322;2023-01-15T03:38:52;8.50;99.90
22781;DHT22;11557;50.884;4.322;2023-01-15T03:50:02;8.50;99.90
22781;DHT22;11557;50.884;4.322;2023-01-15T03:55:10;8.50;99.90
22781;DHT22;11557;50.884;4.322;2023-01-15T03:58:01;8.40;99.90
22781;DHT22;11557;50.884;4.322;2023-01-15T04:00:34;8.30;99.90
22781;DHT22;11557;50.884;4.322;2023-01-15T04:03:03;8.30;99.90
22781;DHT22;11557;50.884;4.322;2023-01-15T04:05:31;8.40;99.90
22781;DHT22;11557;50.884;4.322;2023-01-15T04:08:00;8.60;99.90
22781;DHT22;11557;50.884;4.322;2023-01-15T04:10:27;8.30;99.90
22781;DHT22;11557;50.884;4.322;2023-01-15T04:12:52;8.20;99.90
22781;DHT22;11557;50.884;4.322;2023-01-15T04:15:18;8.20;99.90
22781;DHT22;11557;50.884;4.322;2023-01-15T04:17:44;8.10;99.90
22781;DHT22;11557;50.884;4.322;2023-01-15T04:20:10;8.00;99.90
22781;DHT22;11557;50.884;4.322;2023-01-15T04:22:36;8.00;99.90
22781;DHT22;11557;50.884;4.322;2023-01-15T04:25:03;8.00;99.90
22781;DHT22;11557;50.884;4.322;2023-01-15T04:27:29;8.10;99.90
22781;DHT22;11557;50.884;4.322;2023-01-15T04:29:54;8.00;99.90
22781;DHT22;11557;50.884;4.322;2023-01-15T04:32:20;8.10;99.90
22781;DHT22;11557;50.884;4.322;2023-01-15T04:34:45;8.10;99.90
22781;DHT22;11557;50.884;4.322;2023-01-15T04:37:11;8.20;99.90
22781;DHT22;11557;50.884;4.322;2023-01-15T04:39:37;8.00;99.90
22781;DHT22;11557;50.884;4.322;2023-01-15T04:42:03;8.10;99.90
22781;DHT22;11557;50.884;4.322;2023-01-15T04:44:47;8.10;99.90
22781;DHT22;11557;50.884;4.322;2023-01-15T04:47:13;8.20;99.90
22781;DHT22;11557;50.884;4.322;2023-01-15T04:49:39;8.20;99.90
22781;DHT22;11557;50.884;4.322;2023-01-15T04:52:04;8.20;99.90
22781;DHT22;11557;50.884;4.322;2023-01-15T04:54:30;8.30;99.90
22781;DHT22;11557;50.884;4.322;2023-01-15T04:56:56;8.20;99.90
22781;DHT22;11557;50.884;4.322;2023-01-15T04:59:26;8.00;99.90
22781;DHT22;11557;50.884;4.322;2023-01-15T05:01:52;8.00;99.90
22781;DHT22;11557;50.884;4.322;2023-01-15T05:04:18;7.90;99.90
22781;DHT22;11557;50.884;4.322;2023-01-15T05:06:43;8.00;99.90
22781;DHT22;11557;50.884;4.322;2023-01-15T05:09:09;8.00;99.90
22781;DHT22;11557;50.884;4.322;2023-01-15T05:11:37;7.90;99.90
22781;DHT22;11557;50.884;4.322;2023-01-15T05:14:04;7.90;99.90
22781;DHT22;11557;50.884;4.322;2023-01-15T05:16:31;7.90;99.90
22781;DHT22;11557;50.884;4.322;2023-01-15T05:18:59;8.50;99.90
22781;DHT22;11557;50.884;4.322;2023-01-15T05:21:29;8.40;99.90
22781;DHT22;11557;50.884;4.322;2023-01-15T05:23:56;9.10;99.90
22781;DHT22;11557;50.884;4.322;2023-01-15T05:26:23;8.40;99.90
22781;DHT22;11557;50.884;4.322;2023-01-15T05:28:51;8.20;99.90
22781;DHT22;11557;50.884;4.322;2023-01-15T05:31:17;9.10;99.90
22781;DHT22;11557;50.884;4.322;2023-01-15T05:33:45;8.80;99.90
22781;DHT22;11557;50.884;4.322;2023-01-15T05:36:13;8.00;99.90
22781;DHT22;11557;50.884;4.322;2023-01-15T05:38:39;8.00;99.90
22781;DHT22;11557;50.884;4.322;2023-01-15T05:41:10;8.00;99.90
22781;DHT22;11557;50.884;4.322;2023-01-15T05:43:55;7.90;99.90
22781;DHT22;11557;50.884;4.322;2023-01-15T05:46:23;7.90;99.90
22781;DHT22;11557;50.884;4.322;2023-01-15T05:48:49;7.90;99.90
22781;DHT22;11557;50.884;4.322;2023-01-15T05:51:15;7.80;99.90
22781;DHT22;11557;50.884;4.322;2023-01-15T05:53:41;7.80;99.90
22781;DHT22;11557;50.884;4.322;2023-01-15T05:56:07;8.70;99.90
22781;DHT22;11557;50.884;4.322;2023-01-15T05:58:33;7.80;99.90
22781;DHT22;11557;50.884;4.322;2023-01-15T06:00:59;8.30;99.90
22781;DHT22;11557;50.884;4.322;2023-01-15T06:03:25;7.60;99.90
22781;DHT22;11557;50.884;4.322;2023-01-15T06:05:55;7.20;99.90
22781;DHT22;11557;50.884;4.322;2023-01-15T06:08:22;7.90;99.90
22781;DHT22;11557;50.884;4.322;2023-01-15T06:10:48;7.60;99.90
22781;DHT22;11557;50.884;4.322;2023-01-15T06:13:15;7.40;99.90
22781;DHT22;11557;50.884;4.322;2023-01-15T06:15:43;6.80;99.90
22781;DHT22;11557;50.884;4.322;2023-01-15T06:18:09;6.90;99.90
22781;DHT22;11557;50.884;4.322;2023-01-15T06:20:36;6.80;99.90
22781;DHT22;11557;50.884;4.322;2023-01-15T06:23:01;6.80;99.90
22781;DHT22;11557;50.884;4.322;2023-01-15T06:25:27;6.80;99.90
22781;DHT22;11557;50.884;4.322;2023-01-15T06:27:53;7.80;99.90
22781;DHT22;11557;50.884;4.322;2023-01-15T06:30:19;7.20;99.90
22781;DHT22;11557;50.884;4.322;2023-01-15T06:32:44;7.20;99.90
22781;DHT22;11557;50.884;4.322;2023-01-15T06:35:10;6.70;99.90
22781;DHT22;11557;50.884;4.322;2023-01-15T06:37:37;6.80;99.90
22781;DHT22;11557;50.884;4.322;2023-01-15T06:40:03;6.80;99.90
22781;DHT22;11557;50.884;4.322;2023-01-15T06:42:28;7.00;99.90
22781;DHT22;11557;50.884;4.322;2023-01-15T06:45:13;7.00;99.90
22781;DHT22;11557;50.884;4.322;2023-01-15T06:47:57;7.00;99.90
22781;DHT22;11557;50.884;4.322;2023-01-15T06:50:24;7.00;99.90
22781;DHT22;11557;50.884;4.322;2023-01-15T06:52:50;6.90;99.90
22781;DHT22;11557;50.884;4.322;2023-01-15T06:55:16;7.80;99.90
22781;DHT22;11557;50.884;4.322;2023-01-15T06:57:43;6.90;99.90
22781;DHT22;11557;50.884;4.322;2023-01-15T07:00:10;7.20;99.90
22781;DHT22;11557;50.884;4.322;2023-01-15T07:02:36;7.00;99.90
22781;DHT22;11557;50.884;4.322;2023-01-15T07:05:03;7.10;99.90
22781;DHT22;11557;50.884;4.322;2023-01-15T07:07:29;7.20;99.90
22781;DHT22;11557;50.884;4.322;2023-01-15T07:09:55;7.10;99.90
22781;DHT22;11557;50.884;4.322;2023-01-15T07:12:21;7.90;99.90
22781;DHT22;11557;50.884;4.322;2023-01-15T07:14:47;7.20;99.90
22781;DHT22;11557;50.884;4.322;2023-01-15T07:17:13;7.30;99.90
22781;DHT22;11557;50.884;4.322;2023-01-15T07:19:39;7.40;99.90
22781;DHT22;11557;50.884;4.322;2023-01-15T07:22:06;7.30;99.90
22781;DHT22;11557;50.884;4.322;2023-01-15T07:24:32;7.00;99.90
22781;DHT22;11557;50.884;4.322;2023-01-15T07:26:58;6.90;99.90
22781;DHT22;11557;50.884;4.322;2023-01-15T07:29:24;6.80;99.90
22781;DHT22;11557;50.884;4.322;2023-01-15T07:31:50;6.90;99.90
22781;DHT22;11557;50.884;4.322;2023-01-15T07:34:15;8.20;99.90
22781;DHT22;11557;50.884;4.322;2023-01-15T07:36:41;6.90;99.90
22781;DHT22;11557;50.884;4.322;2023-01-15T07:39:09;7.50;99.90
22781;DHT22;11557;50.884;4.322;2023-01-15T07:41:35;7.60;99.90
22781;DHT22;11557;50.884;4.322;2023-01-15T07:44:20;6.80;99.90
22781;DHT22;11557;50.884;4.322;2023-01-15T07:47:22;7.70;99.90
22781;DHT22;11557;50.884;4.322;2023-01-15T07:50:10;6.60;99.90
22781;DHT22;11557;50.884;4.322;2023-01-15T07:52:35;6.70;99.90
22781;DHT22;11557;50.884;4.322;2023-01-15T07:55:01;6.70;99.90
22781;DHT22;11557;50.884;4.322;2023-01-15T07:57:28;6.70;99.90
22781;DHT22;11557;50.884;4.322;2023-01-15T07:59:54;6.70;99.90
22781;DHT22;11557;50.884;4.322;2023-01-15T08:02:20;6.70;99.90
22781;DHT22;11557;50.884;4.322;2023-01-15T08:04:45;6.70;99.90
22781;DHT22;11557;50.884;4.322;2023-01-15T08:07:13;6.60;99.90
22781;DHT22;11557;50.884;4.322;2023-01-15T08:09:38;6.60;99.90
22781;DHT22;11557;50.884;4.322;2023-01-15T08:12:04;6.50;99.90
22781;DHT22;11557;50.884;4.322;2023-01-15T08:14:48;6.40;99.90
22781;DHT22;11557;50.884;4.322;2023-01-15T08:17:34;7.00;99.90
22781;DHT22;11557;50.884;4.322;2023-01-15T08:20:02;7.40;99.90
22781;DHT22;11557;50.884;4.322;2023-01-15T08:22:27;7.10;99.90
22781;DHT22;11557;50.884;4.322;2023-01-15T08:24:53;7.30;99.90
22781;DHT22;11557;50.884;4.322;2023-01-15T08:27:19;7.20;99.90
22781;DHT22;11557;50.884;4.322;2023-01-15T08:29:44;6.90;99.90
22781;DHT22;11557;50.884;4.322;2023-01-15T08:32:10;6.70;99.90
22781;DHT22;11557;50.884;4.322;2023-01-15T08:34:35;6.80;99.90
22781;DHT22;11557;50.884;4.322;2023-01-15T08:37:01;7.00;99.90
22781;DHT22;11557;50.884;4.322;2023-01-15T08:39:27;6.60;99.90
22781;DHT22;11557;50.884;4.322;2023-01-15T08:41:53;6.70;99.90
22781;DHT22;11557;50.884;4.322;2023-01-15T08:44:20;6.60;99.90
22781;DHT22;11557;50.884;4.322;2023-01-15T08:46:47;6.60;99.90
22781;DHT22;11557;50.884;4.322;2023-01-15T08:49:13;6.50;99.90
22781;DHT22;11557;50.884;4.322;2023-01-15T08:51:39;6.80;99.90
22781;DHT22;11557;50.884;4.322;2023-01-15T08:54:05;7.50;99.90
22781;DHT22;11557;50.884;4.322;2023-01-15T08:56:30;6.60;99.90
22781;DHT22;11557;50.884;4.322;2023-01-15T08:58:56;7.60;99.90
22781;DHT22;11557;50.884;4.322;2023-01-15T09:01:22;6.70;99.90
22781;DHT22;11557;50.884;4.322;2023-01-15T09:03:47;6.70;99.90
22781;DHT22;11557;50.884;4.322;2023-01-15T09:06:13;6.90;99.90
22781;DHT22;11557;50.884;4.322;2023-01-15T09:08:39;6.90;99.90
22781;DHT22;11557;50.884;4.322;2023-01-15T09:11:06;6.90;99.90
22781;DHT22;11557;50.884;4.322;2023-01-15T09:13:35;6.80;99.90
22781;DHT22;11557;50.884;4.322;2023-01-15T09:16:02;6.80;99.90
22781;DHT22;11557;50.884;4.322;2023-01-15T09:18:28;6.70;99.90
22781;DHT22;11557;50.884;4.322;2023-01-15T09:20:55;6.90;99.90
22781;DHT22;11557;50.884;4.322;2023-01-15T09:23:20;6.80;99.90
22781;DHT22;11557;50.884;4.322;2023-01-15T09:25:54;6.70;99.90
22781;DHT22;11557;50.884;4.322;2023-01-15T09:28:20;6.70;99.90
22781;DHT22;11557;50.884;4.322;2023-01-15T09:30:46;6.80;99.90
22781;DHT22;11557;50.884;4.322;2023-01-15T09:33:12;6.60;99.90
22781;DHT22;11557;50.884;4.322;2023-01-15T09:35:38;7.50;99.90
22781;DHT22;11557;50.884;4.322;2023-01-15T09:38:04;6.70;99.90
22781;DHT22;11557;50.884;4.322;2023-01-15T09:46:10;6.80;99.90
22781;DHT22;11557;50.884;4.322;2023-01-15T09:49:08;6.70;99.90
22781;DHT22;11557;50.884;4.322;2023-01-15T09:51:44;6.60;99.90
22781;DHT22;11557;50.884;4.322;2023-01-15T09:56:57;6.60;99.90
22781;DHT22;11557;50.884;4.322;2023-01-15T09:59:32;6.60;99.90
22781;DHT22;11557;50.884;4.322;2023-01-15T10:02:03;6.60;99.90
22781;DHT22;11557;50.884;4.322;2023-01-15T10:04:48;6.80;99.90
22781;DHT22;11557;50.884;4.322;2023-01-15T10:09:50;6.70;99.90
22781;DHT22;11557;50.884;4.322;2023-01-15T10:12:24;6.70;99.90
22781;DHT22;11557;50.884;4.322;2023-01-15T10:23:54;6.80;99.90
22781;DHT22;11557;50.884;4.322;2023-01-15T10:28:57;6.60;99.90
22781;DHT22;11557;50.884;4.322;2023-01-15T10:31:42;6.60;99.90
22781;DHT22;11557;50.884;4.322;2023-01-15T10:37:09;7.00;99.90
22781;DHT22;11557;50.884;4.322;2023-01-15T10:39:46;7.70;99.90
22781;DHT22;11557;50.884;4.322;2023-01-15T10:42:29;8.80;99.90
22781;DHT22;11557;50.884;4.322;2023-01-15T10:47:29;8.00;99.90
22781;DHT22;11557;50.884;4.322;2023-01-15T10:49:58;8.20;99.90
22781;DHT22;11557;50.884;4.322;2023-01-15T10:52:32;9.30;99.90
22781;DHT22;11557;50.884;4.322;2023-01-15T10:55:10;8.60;99.90
22781;DHT22;11557;50.884;4.322;2023-01-15T10:57:43;8.40;99.90
22781;DHT22;11557;50.884;4.322;2023-01-15T11:00:13;8.50;99.90
22781;DHT22;11557;50.884;4.322;2023-01-15T11:02:43;8.30;99.90
22781;DHT22;11557;50.884;4.322;2023-01-15T11:05:19;8.20;99.90
22781;DHT22;11557;50.884;4.322;2023-01-15T11:07:50;8.30;99.90
22781;DHT22;11557;50.884;4.322;2023-01-15T11:10:19;8.10;99.90
22781;DHT22;11557;50.884;4.322;2023-01-15T11:12:57;8.20;99.90
22781;DHT22;11557;50.884;4.322;2023-01-15T11:15:47;7.90;99.90
22781;DHT22;11557;50.884;4.322;2023-01-15T11:18:35;7.90;99.90
22781;DHT22;11557;50.884;4.322;2023-01-15T11:21:22;7.90;99.90
22781;DHT22;11557;50.884;4.322;2023-01-15T11:23:50;7.70;99.90
22781;DHT22;11557;50.884;4.322;2023-01-15T11:26:24;7.50;99.90
22781;DHT22;11557;50.884;4.322;2023-01-15T11:28:52;7.50;99.90
22781;DHT22;11557;50.884;4.322;2023-01-15T11:31:18;7.50;99.90
22781;DHT22;11557;50.884;4.322;2023-01-15T11:33:59;7.50;99.90
22781;DHT22;11557;50.884;4.322;2023-01-15T11:36:27;7.50;99.90
22781;DHT22;11557;50.884;4.322;2023-01-15T11:38:53;7.70;99.90
22781;DHT22;11557;50.884;4.322;2023-01-15T11:41:31;8.10;99.90
22781;DHT22;11557;50.884;4.322;2023-01-15T11:44:17;7.80;99.90
22781;DHT22;11557;50.884;4.322;2023-01-15T11:47:02;8.00;99.90
22781;DHT22;11557;50.884;4.322;2023-01-15T11:49:53;8.10;99.90
22781;DHT22;11557;50.884;4.322;2023-01-15T11:52:47;8.10;99.90
22781;DHT22;11557;50.884;4.322;2023-01-15T11:55:18;8.10;99.90
22781;DHT22;11557;50.884;4.322;2023-01-15T11:57:44;8.30;99.90
22781;DHT22;11557;50.884;4.322;2023-01-15T12:00:27;9.30;99.90
22781;DHT22;11557;50.884;4.322;2023-01-15T12:03:20;7.70;99.90
22781;DHT22;11557;50.884;4.322;2023-01-15T12:05:54;7.90;99.90
22781;DHT22;11557;50.884;4.322;2023-01-15T12:20:50;7.70;99.90
22781;DHT22;11557;50.884;4.322;2023-01-15T12:28:41;8.40;99.90
22781;DHT22;11557;50.884;4.322;2023-01-15T12:31:16;8.10;99.90
22781;DHT22;11557;50.884;4.322;2023-01-15T12:33:50;7.80;99.90
22781;DHT22;11557;50.884;4.322;2023-01-15T12:36:24;8.30;99.90
22781;DHT22;11557;50.884;4.322;2023-01-15T12:39:08;7.70;99.90
22781;DHT22;11557;50.884;4.322;2023-01-15T12:41:40;7.80;99.90
22781;DHT22;11557;50.884;4.322;2023-01-15T12:44:48;8.60;99.90
22781;DHT22;11557;50.884;4.322;2023-01-15T12:53:45;7.90;99.90
22781;DHT22;11557;50.884;4.322;2023-01-15T12:56:22;7.90;99.90
22781;DHT22;11557;50.884;4.322;2023-01-15T13:04:51;8.00;99.90
22781;DHT22;11557;50.884;4.322;2023-01-15T13:07:58;9.10;99.90
22781;DHT22;11557;50.884;4.322;2023-01-15T13:10:25;8.40;99.90
22781;DHT22;11557;50.884;4.322;2023-01-15T13:13:01;8.20;99.90
22781;DHT22;11557;50.884;4.322;2023-01-15T13:15:37;8.20;99.90
22781;DHT22;11557;50.884;4.322;2023-01-15T13:20:49;8.20;99.90
22781;DHT22;11557;50.884;4.322;2023-01-15T13:34:02;8.10;99.90
22781;DHT22;11557;50.884;4.322;2023-01-15T13:36:40;8.00;99.90
22781;DHT22;11557;50.884;4.322;2023-01-15T13:39:14;8.10;99.90
22781;DHT22;11557;50.884;4.322;2023-01-15T13:41:41;8.10;99.90
22781;DHT22;11557;50.884;4.322;2023-01-15T13:44:31;8.20;99.90
22781;DHT22;11557;50.884;4.322;2023-01-15T13:47:06;7.80;99.90
22781;DHT22;11557;50.884;4.322;2023-01-15T13:49:41;7.70;99.90
22781;DHT22;11557;50.884;4.322;2023-01-15T13:52:23;8.10;99.90
22781;DHT22;11557;50.884;4.322;2023-01-15T13:58:38;7.30;99.90
22781;DHT22;11557;50.884;4.322;2023-01-15T14:01:35;7.40;99.90
22781;DHT22;11557;50.884;4.322;2023-01-15T14:28:45;7.40;99.90
22781;DHT22;11557;50.884;4.322;2023-01-15T14:31:34;7.40;99.90
22781;DHT22;11557;50.884;4.322;2023-01-15T14:34:26;7.50;99.90
22781;DHT22;11557;50.884;4.322;2023-01-15T14:37:56;7.30;99.90
22781;DHT22;11557;50.884;4.322;2023-01-15T14:39:56;7.40;99.90
22781;DHT22;11557;50.884;4.322;2023-01-15T14:42:25;7.30;99.90
22781;DHT22;11557;50.884;4.322;2023-01-15T14:47:44;7.30;99.90
22781;DHT22;11557;50.884;4.322;2023-01-15T14:50:24;7.40;99.90
22781;DHT22;11557;50.884;4.322;2023-01-15T14:52:53;7.30;99.90
22781;DHT22;11557;50.884;4.322;2023-01-15T14:55:19;7.30;99.90
22781;DHT22;11557;50.884;4.322;2023-01-15T14:57:54;7.30;99.90
22781;DHT22;11557;50.884;4.322;2023-01-15T15:00:23;8.10;99.90
22781;DHT22;11557;50.884;4.322;2023-01-15T15:02:50;7.50;99.90
22781;DHT22;11557;50.884;4.322;2023-01-15T15:05:18;7.20;99.90
22781;DHT22;11557;50.884;4.322;2023-01-15T15:07:49;7.20;99.90
22781;DHT22;11557;50.884;4.322;2023-01-15T15:10:38;7.80;99.90
22781;DHT22;11557;50.884;4.322;2023-01-15T15:19:03;7.10;99.90
22781;DHT22;11557;50.884;4.322;2023-01-15T15:21:35;7.00;99.90
22781;DHT22;11557;50.884;4.322;2023-01-15T15:24:32;7.10;99.90
22781;DHT22;11557;50.884;4.322;2023-01-15T15:27:28;7.20;99.90
22781;DHT22;11557;50.884;4.322;2023-01-15T15:30:06;7.20;99.90
22781;DHT22;11557;50.884;4.322;2023-01-15T15:32:32;7.30;99.90
22781;DHT22;11557;50.884;4.322;2023-01-15T15:35:05;7.20;99.90
22781;DHT22;11557;50.884;4.322;2023-01-15T15:37:43;7.20;99.90
22781;DHT22;11557;50.884;4.322;2023-01-15T15:40:20;7.10;99.90
22781;DHT22;11557;50.884;4.322;2023-01-15T15:43:01;7.20;99.90
22781;DHT22;11557;50.884;4.322;2023-01-15T15:45:51;7.20;99.90
22781;DHT22;11557;50.884;4.322;2023-01-15T15:48:36;7.10;99.90
22781;DHT22;11557;50.884;4.322;2023-01-15T15:54:23;6.90;99.90
22781;DHT22;11557;50.884;4.322;2023-01-15T16:01:53;6.80;99.90
22781;DHT22;11557;50.884;4.322;2023-01-15T16:04:20;6.80;99.90
22781;DHT22;11557;50.884;4.322;2023-01-15T16:06:46;6.80;99.90
22781;DHT22;11557;50.884;4.322;2023-01-15T16:09:13;6.70;99.90
22781;DHT22;11557;50.884;4.322;2023-01-15T16:11:44;6.60;99.90
22781;DHT22;11557;50.884;4.322;2023-01-15T16:14:11;6.70;99.90
22781;DHT22;11557;50.884;4.322;2023-01-15T16:16:40;6.70;99.90
22781;DHT22;11557;50.884;4.322;2023-01-15T16:19:08;7.10;99.90
22781;DHT22;11557;50.884;4.322;2023-01-15T16:21:39;7.10;99.90
22781;DHT22;11557;50.884;4.322;2023-01-15T16:24:08;7.00;99.90
22781;DHT22;11557;50.884;4.322;2023-01-15T16:26:43;6.40;99.90
22781;DHT22;11557;50.884;4.322;2023-01-15T16:29:17;6.40;99.90
22781;DHT22;11557;50.884;4.322;2023-01-15T16:31:44;6.60;99.90
22781;DHT22;11557;50.884;4.322;2023-01-15T16:34:18;7.20;99.90
22781;DHT22;11557;50.884;4.322;2023-01-15T16:36:44;7.10;99.90
22781;DHT22;11557;50.884;4.322;2023-01-15T16:39:23;6.50;99.90
22781;DHT22;11557;50.884;4.322;2023-01-15T16:41:54;6.50;99.90
22781;DHT22;11557;50.884;4.322;2023-01-15T16:44:38;6.50;99.90
22781;DHT22;11557;50.884;4.322;2023-01-15T16:47:05;6.40;99.90
22781;DHT22;11557;50.884;4.322;2023-01-15T16:49:32;6.30;99.90
22781;DHT22;11557;50.884;4.322;2023-01-15T16:52:00;6.20;99.90
22781;DHT22;11557;50.884;4.322;2023-01-15T16:59:56;6.30;99.90
22781;DHT22;11557;50.884;4.322;2023-01-15T17:02:23;6.10;99.90
22781;DHT22;11557;50.884;4.322;2023-01-15T17:04:54;6.10;99.90
22781;DHT22;11557;50.884;4.322;2023-01-15T17:07:35;6.60;99.90
22781;DHT22;11557;50.884;4.322;2023-01-15T17:10:04;6.20;99.90
22781;DHT22;11557;50.884;4.322;2023-01-15T17:12:33;6.20;99.90
22781;DHT22;11557;50.884;4.322;2023-01-15T17:20:16;6.40;99.90
22781;DHT22;11557;50.884;4.322;2023-01-15T17:22:44;6.60;99.90
22781;DHT22;11557;50.884;4.322;2023-01-15T17:27:51;6.50;99.90
22781;DHT22;11557;50.884;4.322;2023-01-15T17:30:17;6.50;99.90
22781;DHT22;11557;50.884;4.322;2023-01-15T17:32:44;6.60;99.90
22781;DHT22;11557;50.884;4.322;2023-01-15T17:35:25;6.70;99.90
22781;DHT22;11557;50.884;4.322;2023-01-15T17:37:51;6.80;99.90
22781;DHT22;11557;50.884;4.322;2023-01-15T17:40:18;7.00;99.90
22781;DHT22;11557;50.884;4.322;2023-01-15T17:42:44;7.00;99.90
22781;DHT22;11557;50.884;4.322;2023-01-15T17:45:22;7.30;99.90
22781;DHT22;11557;50.884;4.322;2023-01-15T17:47:48;7.70;99.90
22781;DHT22;11557;50.884;4.322;2023-01-15T17:50:15;7.80;99.90
22781;DHT22;11557;50.884;4.322;2023-01-15T17:52:41;7.20;99.90
22781;DHT22;11557;50.884;4.322;2023-01-15T17:55:16;7.90;99.90
22781;DHT22;11557;50.884;4.322;2023-01-15T17:58:01;7.10;99.90
22781;DHT22;11557;50.884;4.322;2023-01-15T18:00:46;7.80;99.90
22781;DHT22;11557;50.884;4.322;2023-01-15T18:03:31;7.10;99.90
22781;DHT22;11557;50.884;4.322;2023-01-15T18:06:16;7.50;99.90
22781;DHT22;11557;50.884;4.322;2023-01-15T18:08:47;7.00;99.90
22781;DHT22;11557;50.884;4.322;2023-01-15T18:11:14;7.10;99.90
22781;DHT22;11557;50.884;4.322;2023-01-15T18:13:40;7.10;99.90
22781;DHT22;11557;50.884;4.322;2023-01-15T18:16:07;7.20;99.90
22781;DHT22;11557;50.884;4.322;2023-01-15T18:18:32;7.20;99.90
22781;DHT22;11557;50.884;4.322;2023-01-15T18:20:59;7.20;99.90
22781;DHT22;11557;50.884;4.322;2023-01-15T18:23:26;7.20;99.90
22781;DHT22;11557;50.884;4.322;2023-01-15T18:25:52;7.20;99.90
22781;DHT22;11557;50.884;4.322;2023-01-15T18:28:18;7.20;99.90
22781;DHT22;11557;50.884;4.322;2023-01-15T18:30:44;7.10;99.90
22781;DHT22;11557;50.884;4.322;2023-01-15T18:33:09;7.20;99.90
22781;DHT22;11557;50.884;4.322;2023-01-15T18:35:35;7.20;99.90
22781;DHT22;11557;50.884;4.322;2023-01-15T18:38:01;7.20;99.90
22781;DHT22;11557;50.884;4.322;2023-01-15T18:40:27;8.10;99.90
22781;DHT22;11557;50.884;4.322;2023-01-15T18:42:56;7.30;99.90